TimeCST,TemperatureF,Dew PointF,Humidity,Sea Level PressureIn,VisibilityMPH,Wind Direction,Wind SpeedMPH,Gust SpeedMPH,PrecipitationIn,Events,Conditions,WindDirDegrees,DateUTC
12:52 AM,69.8,60.8,73,29.99,7.0,NW,6.9,-,N/A,,Mostly Cloudy,320,2012-10-30 06:52:00
1:50 AM,68.0,60.8,78,29.98,7.0,NW,9.2,-,N/A,,Mostly Cloudy,320,2012-10-30 07:50:00
2:40 AM,68.0,60.8,78,30.01,7.0,NW,10.4,-,N/A,,Mostly Cloudy,320,2012-10-30 08:40:00
3:45 AM,69.8,60.8,73,29.99,7.0,NNW,9.2,-,N/A,,Mostly Cloudy,330,2012-10-30 09:45:00
4:41 AM,68.0,60.8,78,30.00,7.0,NNW,9.2,-,N/A,,Mostly Cloudy,330,2012-10-30 10:41:00
5:50 AM,68.0,60.8,78,29.99,7.0,NNW,8.1,-,N/A,,Mostly Cloudy,330,2012-10-30 11:50:00
6:43 AM,69.8,60.8,73,30.05,8.0,NW,9.2,-,N/A,,Mostly Cloudy,310,2012-10-30 12:43:00
7:40 AM,71.6,60.8,69,30.05,8.0,NW,10.4,-,N/A,,Mostly Cloudy,320,2012-10-30 13:40:00
8:42 AM,73.4,60.8,65,30.09,8.0,NNW,11.5,-,N/A,,Mostly Cloudy,330,2012-10-30 14:42:00
9:51 AM,73.4,59.0,61,30.06,8.0,NNW,9.2,-,N/A,,Mostly Cloudy,340,2012-10-30 15:51:00
10:48 AM,75.2,59.0,57,30.04,10.0,NNW,10.4,-,N/A,,Mostly Cloudy,340,2012-10-30 16:48:00
11:52 AM,77.0,59.0,54,29.97,10.0,North,8.1,-,N/A,,Mostly Cloudy,360,2012-10-30 17:52:00
12:46 PM,78.8,57.2,47,29.99,10.0,NNW,6.9,-,N/A,,Mostly Cloudy,330,2012-10-30 18:46:00
1:47 PM,77.0,57.2,50,29.97,10.0,NNE,6.9,-,N/A,,Mostly Cloudy,20,2012-10-30 19:47:00
2:50 PM,77.0,59.0,54,29.99,10.0,North,9.2,-,N/A,,Mostly Cloudy,360,2012-10-30 20:50:00
3:44 PM,75.2,59.0,57,29.97,10.0,NNE,3.5,-,N/A,,Mostly Cloudy,20,2012-10-30 21:44:00
4:41 PM,73.4,59.0,61,29.98,8.0,North,9.2,-,N/A,,Mostly Cloudy,360,2012-10-30 22:41:00
5:43 PM,71.6,59.0,64,29.97,7.0,North,9.2,-,N/A,,Scattered Clouds,10,2012-10-30 23:43:00
6:47 PM,69.8,57.2,64,30.04,7.0,NNE,6.9,-,N/A,,Partly Cloudy,20,2012-10-31 00:47:00
7:41 PM,68.0,57.2,68,30.06,7.0,North,5.8,-,N/A,,Partly Cloudy,10,2012-10-31 01:41:00
8:47 PM,68.0,55.4,64,30.10,7.0,NNE,5.8,-,N/A,,Partly Cloudy,20,2012-10-31 02:47:00
9:54 PM,68.0,59.0,73,30.07,7.0,North,5.8,-,N/A,,Partly Cloudy,10,2012-10-31 03:54:00
10:50 PM,68.0,59.0,73,30.07,7.0,North,5.8,-,N/A,,Partly Cloudy,10,2012-10-31 04:50:00
11:47 PM,75.2,57.2,53,30.03,7.0,NNE,4.6,-,N/A,,Partly Cloudy,20,2012-10-31 05:47:00